createdAt,value
2022-10-11T00:00:28.713Z,8.40
2022-10-11T00:05:36.935Z,9.03
2022-10-11T00:10:45.506Z,9.47
2022-10-11T00:15:53.810Z,8.87
2022-10-11T00:21:03.466Z,9.17
2022-10-11T00:26:12.583Z,8.83
2022-10-11T00:31:21.469Z,8.57
2022-10-11T00:36:29.378Z,9.23
2022-10-11T00:41:37.436Z,9.20
2022-10-11T00:46:47.406Z,8.30
2022-10-11T00:51:59.249Z,7.73
2022-10-11T00:57:09.322Z,8.20
2022-10-11T01:02:17.557Z,9.23
2022-10-11T01:07:28.031Z,8.80
2022-10-11T01:12:36.168Z,9.57
2022-10-11T01:17:47.186Z,9.03
2022-10-11T01:22:59.985Z,8.80
2022-10-11T01:28:11.165Z,8.70
2022-10-11T01:33:22.398Z,8.93
2022-10-11T01:38:33.550Z,8.83
2022-10-11T01:43:41.770Z,8.93
2022-10-11T01:48:52.431Z,9.33
2022-10-11T01:54:04.781Z,8.27
2022-10-11T01:59:15.914Z,8.27
2022-10-11T02:04:26.288Z,8.97
2022-10-11T02:09:37.728Z,8.87
2022-10-11T02:14:48.736Z,8.27
2022-10-11T02:19:56.808Z,9.77
2022-10-11T02:25:06.778Z,10.87
2022-10-11T02:30:15.359Z,10.53
2022-10-11T02:35:24.365Z,10.17
2022-10-11T02:40:34.184Z,10.07
2022-10-11T02:45:45.462Z,10.97
2022-10-11T02:50:53.613Z,11.03
2022-10-11T02:56:01.892Z,9.63
2022-10-11T03:01:09.959Z,10.90
2022-10-11T03:06:17.826Z,10.23
2022-10-11T03:11:26.276Z,10.90
2022-10-11T03:16:34.260Z,9.07
2022-10-11T03:21:42.732Z,9.53
2022-10-11T03:26:50.687Z,10.33
2022-10-11T03:31:59.332Z,9.60
2022-10-11T03:37:07.473Z,9.60
2022-10-11T03:42:15.479Z,8.63
2022-10-11T03:47:23.408Z,8.73
2022-10-11T03:52:32.146Z,9.23
2022-10-11T03:57:40.089Z,8.30
2022-10-11T04:02:48.023Z,8.70
2022-10-11T04:07:56.029Z,8.63
2022-10-11T04:13:03.916Z,8.53
2022-10-11T04:18:12.481Z,8.37
2022-10-11T04:23:20.448Z,9.27
2022-10-11T04:28:28.336Z,9.60
2022-10-11T04:33:36.393Z,8.93
2022-10-11T04:38:45.294Z,9.20
2022-10-11T04:43:53.229Z,9.03
2022-10-11T04:49:01.218Z,10.10
2022-10-11T04:54:10.094Z,9.20
2022-10-11T04:59:19.112Z,9.13
2022-10-11T05:04:27.450Z,8.77
2022-10-11T05:09:35.349Z,8.70
2022-10-11T05:14:43.307Z,8.70
2022-10-11T05:19:51.283Z,8.50
2022-10-11T05:24:59.193Z,8.63
2022-10-11T05:30:07.672Z,7.77
2022-10-11T05:35:15.795Z,8.40
2022-10-11T05:40:23.595Z,8.47
2022-10-11T05:45:33.105Z,9.30
2022-10-11T05:50:41.381Z,8.47
2022-10-11T05:55:49.386Z,8.83
2022-10-11T06:00:57.431Z,8.07
2022-10-11T06:06:06.045Z,8.77
2022-10-11T06:11:16.478Z,9.90
2022-10-11T06:16:24.743Z,8.37
2022-10-11T06:21:33.113Z,9.37
2022-10-11T06:26:41.059Z,9.50
2022-10-11T06:31:49.859Z,8.67
2022-10-11T06:36:58.165Z,9.37
2022-10-11T06:42:06.053Z,8.40
2022-10-11T06:47:13.900Z,8.87
2022-10-11T06:52:21.827Z,7.07
2022-10-11T06:57:30.310Z,5.63
2022-10-11T07:02:38.637Z,6.40
2022-10-11T07:07:46.552Z,6.17
2022-10-11T07:12:54.434Z,6.50
2022-10-11T07:18:02.412Z,5.70
2022-10-11T07:23:10.999Z,6.13
2022-10-11T07:28:19.019Z,5.27
2022-10-11T07:33:27.553Z,5.20
2022-10-11T07:38:35.443Z,4.30
2022-10-11T07:43:44.518Z,4.10
2022-10-11T07:48:53.955Z,3.73
2022-10-11T07:54:06.828Z,3.00
2022-10-11T07:59:12.125Z,2.83
2022-10-11T08:04:21.640Z,3.17
2022-10-11T08:09:30.348Z,1.97
2022-10-11T08:14:38.342Z,2.00
2022-10-11T08:19:46.242Z,2.30
2022-10-11T08:24:54.184Z,2.30
2022-10-11T08:30:02.014Z,1.77
2022-10-11T08:35:09.924Z,2.60
2022-10-11T08:40:20.065Z,1.87
2022-10-11T08:45:31.410Z,1.67
2022-10-11T08:50:39.417Z,1.70
2022-10-11T08:55:51.237Z,1.43
2022-10-11T09:00:59.958Z,1.87
2022-10-11T09:06:12.159Z,2.40
2022-10-11T09:11:26.429Z,2.07
2022-10-11T09:16:37.526Z,1.40
2022-10-11T09:21:48.584Z,1.50
2022-10-11T09:26:59.984Z,1.27
2022-10-11T09:32:12.615Z,1.50
2022-10-11T09:37:24.196Z,1.83
2022-10-11T09:42:32.014Z,1.03
2022-10-11T09:47:40.092Z,1.43
2022-10-11T09:52:51.235Z,1.40
2022-10-11T09:57:59.800Z,1.20
2022-10-11T10:03:09.223Z,1.40
2022-10-11T10:08:23.465Z,1.77
2022-10-11T10:13:34.558Z,1.00
2022-10-11T10:18:44.942Z,1.50
2022-10-11T10:23:55.105Z,1.00
2022-10-11T10:29:06.007Z,1.10
2022-10-11T10:34:16.877Z,1.20
2022-10-11T10:39:28.682Z,0.87
2022-10-11T10:44:37.172Z,1.03
2022-10-11T10:49:54.248Z,0.70
2022-10-11T10:55:01.780Z,0.97
2022-10-11T11:00:12.802Z,0.93
2022-10-11T11:05:24.746Z,1.10
2022-10-11T11:10:37.080Z,0.90
2022-10-11T11:15:48.486Z,1.00
2022-10-11T11:20:59.698Z,1.20
2022-10-11T11:26:11.246Z,0.70
2022-10-11T11:31:22.313Z,0.67
2022-10-11T11:36:33.267Z,0.97
2022-10-11T11:41:44.454Z,1.40
2022-10-11T11:46:55.916Z,1.40
2022-10-11T11:52:04.910Z,1.17
2022-10-11T11:57:15.911Z,0.70
2022-10-11T12:02:27.511Z,0.93
2022-10-11T12:07:38.546Z,1.03
2022-10-11T12:12:46.466Z,0.90
2022-10-11T12:17:58.026Z,1.00
2022-10-11T12:23:09.337Z,0.87
2022-10-11T12:28:20.489Z,1.07
2022-10-11T12:33:32.915Z,0.93
2022-10-11T12:38:42.035Z,1.30
2022-10-11T12:49:06.134Z,0.93
2022-10-11T12:54:36.909Z,0.83
2022-10-11T12:59:27.125Z,0.80
2022-10-11T13:04:36.165Z,1.57
2022-10-11T13:09:48.950Z,1.20
2022-10-11T13:14:57.742Z,1.03
2022-10-11T13:20:08.966Z,0.60
2022-10-11T13:25:20.206Z,1.17
2022-10-11T13:30:30.858Z,0.60
2022-10-11T13:35:39.330Z,0.87
2022-10-11T13:40:50.816Z,1.20
2022-10-11T13:45:59.193Z,1.17
2022-10-11T13:51:09.542Z,1.20
2022-10-11T13:56:17.315Z,1.07
2022-10-11T14:01:28.322Z,1.27
2022-10-11T14:06:39.252Z,1.00
2022-10-11T14:11:49.221Z,1.00
2022-10-11T14:16:58.809Z,0.90
2022-10-11T14:22:07.524Z,1.67
2022-10-11T14:27:18.638Z,1.50
2022-10-11T14:32:30.010Z,1.37
2022-10-11T14:37:38.442Z,0.90
2022-10-11T14:42:46.396Z,1.10
2022-10-11T14:47:54.360Z,1.60
2022-10-11T14:53:03.270Z,1.03
2022-10-11T14:58:12.689Z,1.17
2022-10-11T15:03:20.922Z,1.10
2022-10-11T15:08:28.684Z,1.10
2022-10-11T15:13:36.470Z,1.07
2022-10-11T15:18:44.590Z,1.17
2022-10-11T15:23:53.334Z,0.83
2022-10-11T15:29:01.318Z,1.30
2022-10-11T15:34:09.458Z,1.23
2022-10-11T15:39:20.981Z,2.53
2022-10-11T15:44:29.282Z,1.83
2022-10-11T15:49:37.304Z,1.77
2022-10-11T15:54:46.122Z,1.53
2022-10-11T15:59:54.004Z,1.90
2022-10-11T16:05:05.097Z,1.67
2022-10-11T16:10:13.633Z,1.70
2022-10-11T16:15:21.700Z,1.40
2022-10-11T16:20:30.786Z,1.70
2022-10-11T16:25:39.258Z,1.73
2022-10-11T16:30:47.136Z,2.27
2022-10-11T16:35:57.063Z,2.20
2022-10-11T16:41:06.802Z,2.93
2022-10-11T16:46:14.943Z,4.43
2022-10-11T16:51:25.153Z,4.17
2022-10-11T16:56:38.817Z,5.23
2022-10-11T17:01:43.755Z,5.27
2022-10-11T17:06:52.082Z,8.13
2022-10-11T17:12:01.054Z,9.37
2022-10-11T17:17:09.706Z,11.73
2022-10-11T17:22:22.942Z,12.60
2022-10-11T17:27:31.507Z,11.43
2022-10-11T17:32:40.019Z,9.30
2022-10-11T17:37:49.505Z,8.53
2022-10-11T17:42:57.637Z,9.13
2022-10-11T17:48:05.835Z,10.33
2022-10-11T17:53:14.317Z,13.10
2022-10-11T17:58:22.290Z,11.03
2022-10-11T18:03:31.750Z,10.33
2022-10-11T18:08:40.740Z,9.93
2022-10-11T18:13:49.530Z,9.53
2022-10-11T18:18:57.733Z,9.30
2022-10-11T18:24:08.088Z,9.77
2022-10-11T18:29:16.558Z,9.43
2022-10-11T18:34:24.636Z,9.37
2022-10-11T18:39:32.779Z,10.10
2022-10-11T18:44:40.955Z,9.30
2022-10-11T18:49:50.034Z,9.70
2022-10-11T18:54:58.821Z,8.17
2022-10-11T19:00:29.395Z,7.73
2022-10-11T19:05:18.520Z,7.50
2022-10-11T19:10:26.885Z,6.90
2022-10-11T19:15:37.109Z,11.30
2022-10-11T19:20:45.113Z,10.13
2022-10-11T19:25:56.900Z,9.63
2022-10-11T19:31:06.524Z,8.37
2022-10-11T19:36:15.524Z,9.27
2022-10-11T19:41:24.282Z,11.23
2022-10-11T19:46:50.428Z,16.53
2022-10-11T19:51:42.071Z,15.33
2022-10-11T19:56:50.025Z,14.27
2022-10-11T20:01:58.008Z,14.73
2022-10-11T20:07:06.064Z,15.50
2022-10-11T20:12:14.164Z,13.47
2022-10-11T20:17:22.409Z,13.20
2022-10-11T20:22:31.188Z,12.90
2022-10-11T20:27:41.126Z,11.23
2022-10-11T20:32:50.053Z,14.77
2022-10-11T20:37:58.249Z,16.00
2022-10-11T20:43:06.393Z,18.63
2022-10-11T20:48:14.381Z,19.43
2022-10-11T20:53:22.387Z,19.27
2022-10-11T20:58:30.867Z,20.70
2022-10-11T21:03:40.465Z,22.47
2022-10-11T21:08:48.284Z,21.77
2022-10-11T21:13:58.598Z,22.80
2022-10-11T21:19:06.586Z,22.23
2022-10-11T21:24:14.533Z,21.57
2022-10-11T21:29:22.743Z,22.77
2022-10-11T21:34:30.927Z,21.53
2022-10-11T21:39:39.324Z,20.17
2022-10-11T21:44:47.356Z,23.43
2022-10-11T21:49:56.300Z,21.77
2022-10-11T21:55:04.156Z,23.47
2022-10-11T22:00:14.980Z,23.20
2022-10-11T22:05:23.148Z,22.57
2022-10-11T22:10:31.749Z,22.13
2022-10-11T22:15:40.181Z,20.30
2022-10-11T22:20:48.312Z,20.87
2022-10-11T22:25:56.848Z,22.23
2022-10-11T22:31:06.513Z,24.13
2022-10-11T22:36:16.562Z,20.50
2022-10-11T22:41:24.975Z,21.57
2022-10-11T22:46:32.847Z,20.87
2022-10-11T22:51:40.917Z,21.87
2022-10-11T22:56:49.371Z,21.93
2022-10-11T23:01:57.253Z,20.60
2022-10-11T23:07:05.342Z,19.57
2022-10-11T23:12:14.979Z,20.97
2022-10-11T23:17:23.963Z,24.73
2022-10-11T23:22:31.982Z,17.43
2022-10-11T23:27:40.281Z,18.93
2022-10-11T23:32:48.412Z,19.17
2022-10-11T23:37:56.636Z,17.10
2022-10-11T23:43:04.651Z,17.53
2022-10-11T23:48:12.850Z,18.13
2022-10-11T23:53:21.868Z,15.37
2022-10-11T23:58:29.687Z,14.20
